Ana Sayfa
METAR-TAF:

METAR-TAF

Havaalanları :

Morganton, Kuzey Carolina, Amerika Birleşik Devletleri

Enlem: 35-49-17N, Boylam: 081-36-39W, yükseklik: 387 m

Güncel hava durumu gözlemi

Rapor saat 17:35 UTC de 18 dakika önce yapıldı.
Rüzgar kuzey/kuzeybatıdan 3 kt
Sıcaklık 8°C
Nem 34%
Basınç 1023 hPa
Görüş mesafesi: 16.1 km
Açık gökyüzü

METAR: KMRN 071735Z AUTO 34003KT 10SM CLR 08/M07 A3022 RMK AO2 T00761073

Saat: 12:53 (17:53 UTC)


TAF: eksik

4.000'den fazla havaalanı için hava durumu gözlemleri ve tahminleri (METAR ve TAF raporları).

Kullanılabilir istasyonlar harita üzerinde sarı ve kırmızı noktalarla gösterilir.

İstasyonun adını görmek için fareyi noktanın üzerinde gezdirin.

Sonrasında hava gözlem ve tahminlerini görmek için tıklayın.

Haritayı değiştirmek için: yaklaştırmak için siyah artı işaretli yeşil düğmeye ve uzaklaştırmak için de eksi işaretli düğmeye hızla tıklayın; bitişik haritalar için yeşil okları kullanın.


METAR-TAF: